sensor_id;sensor_type;location;lat;lon;timestamp;pressure;altitude;pressure_sealevel;temperature;humidity
75629;BME280;64213;46.452;16.994;2022-12-13T00:02:19;99838.28;;;-5.40;100.00
75629;BME280;64213;46.452;16.994;2022-12-13T00:05:21;99838.28;;;-5.41;100.00
75629;BME280;64213;46.452;16.994;2022-12-13T00:08:23;99832.28;;;-5.45;100.00
75629;BME280;64213;46.452;16.994;2022-12-13T00:11:26;99838.28;;;-5.46;100.00
75629;BME280;64213;46.452;16.994;2022-12-13T00:14:29;99836.56;;;-5.44;100.00
75629;BME280;64213;46.452;16.994;2022-12-13T00:17:33;99840.00;;;-5.43;100.00
75629;BME280;64213;46.452;16.994;2022-12-13T00:20:38;99834.03;;;-5.45;100.00
75629;BME280;64213;46.452;16.994;2022-12-13T00:23:41;99833.13;;;-5.49;100.00
75629;BME280;64213;46.452;16.994;2022-12-13T00:26:43;99825.44;;;-5.53;100.00
75629;BME280;64213;46.452;16.994;2022-12-13T00:29:45;99825.47;;;-5.55;100.00
75629;BME280;64213;46.452;16.994;2022-12-13T00:32:47;99831.47;;;-5.57;100.00
75629;BME280;64213;46.452;16.994;2022-12-13T00:35:49;99835.75;;;-5.55;100.00
75629;BME280;64213;46.452;16.994;2022-12-13T00:38:52;99832.31;;;-5.54;100.00
75629;BME280;64213;46.452;16.994;2022-12-13T00:42:03;99840.03;;;-5.58;100.00
75629;BME280;64213;46.452;16.994;2022-12-13T00:45:06;99843.50;;;-5.61;100.00
75629;BME280;64213;46.452;16.994;2022-12-13T00:48:09;99844.34;;;-5.62;100.00
75629;BME280;64213;46.452;16.994;2022-12-13T00:51:12;99847.78;;;-5.63;100.00
75629;BME280;64213;46.452;16.994;2022-12-13T00:54:14;99856.37;;;-5.67;100.00
75629;BME280;64213;46.452;16.994;2022-12-13T00:57:17;99867.53;;;-5.71;100.00
75629;BME280;64213;46.452;16.994;2022-12-13T01:00:19;99864.09;;;-5.75;100.00
75629;BME280;64213;46.452;16.994;2022-12-13T01:03:22;99865.00;;;-5.77;100.00
75629;BME280;64213;46.452;16.994;2022-12-13T01:09:37;99868.41;;;-5.85;99.81
75629;BME280;64213;46.452;16.994;2022-12-13T01:12:40;99870.19;;;-5.93;99.59
75629;BME280;64213;46.452;16.994;2022-12-13T01:15:44;99871.00;;;-5.97;99.56
75629;BME280;64213;46.452;16.994;2022-12-13T01:18:46;99875.31;;;-5.99;99.66
75629;BME280;64213;46.452;16.994;2022-12-13T01:22:16;99879.63;;;-6.02;99.59
75629;BME280;64213;46.452;16.994;2022-12-13T01:25:18;99875.31;;;-6.05;99.72
75629;BME280;64213;46.452;16.994;2022-12-13T01:28:22;99881.34;;;-6.06;99.78
75629;BME280;64213;46.452;16.994;2022-12-13T01:31:24;99870.16;;;-6.08;99.68
75629;BME280;64213;46.452;16.994;2022-12-13T01:34:27;99873.63;;;-6.09;99.76
75629;BME280;64213;46.452;16.994;2022-12-13T01:37:29;99875.31;;;-6.06;99.73
75629;BME280;64213;46.452;16.994;2022-12-13T01:40:31;99877.03;;;-6.07;99.67
75629;BME280;64213;46.452;16.994;2022-12-13T01:46:41;99867.59;;;-6.03;99.87
75629;BME280;64213;46.452;16.994;2022-12-13T01:49:43;99867.59;;;-6.03;100.00
75629;BME280;64213;46.452;16.994;2022-12-13T01:52:47;99870.16;;;-6.03;100.00
75629;BME280;64213;46.452;16.994;2022-12-13T01:55:54;99865.88;;;-6.04;100.00
75629;BME280;64213;46.452;16.994;2022-12-13T01:58:58;99869.31;;;-6.04;100.00
75629;BME280;64213;46.452;16.994;2022-12-13T02:02:06;99859.00;;;-6.04;100.00
75629;BME280;64213;46.452;16.994;2022-12-13T02:05:27;99864.16;;;-6.05;100.00
75629;BME280;64213;46.452;16.994;2022-12-13T02:08:29;99868.47;;;-6.09;100.00
75629;BME280;64213;46.452;16.994;2022-12-13T02:11:39;99872.75;;;-6.05;100.00
75629;BME280;64213;46.452;16.994;2022-12-13T02:14:42;99872.75;;;-6.02;100.00
75629;BME280;64213;46.452;16.994;2022-12-13T02:17:57;99870.19;;;-6.02;100.00
75629;BME280;64213;46.452;16.994;2022-12-13T02:21:46;99865.88;;;-6.01;100.00
75629;BME280;64213;46.452;16.994;2022-12-13T02:28:15;99871.03;;;-5.98;100.00
75629;BME280;64213;46.452;16.994;2022-12-13T02:31:53;99863.28;;;-5.97;100.00
75629;BME280;64213;46.452;16.994;2022-12-13T02:38:12;99866.69;;;-5.89;100.00
75629;BME280;64213;46.452;16.994;2022-12-13T02:44:37;99862.41;;;-5.82;100.00
75629;BME280;64213;46.452;16.994;2022-12-13T02:47:41;99866.69;;;-5.78;100.00
75629;BME280;64213;46.452;16.994;2022-12-13T02:50:50;99859.81;;;-5.74;100.00
75629;BME280;64213;46.452;16.994;2022-12-13T02:53:53;99859.81;;;-5.74;100.00
75629;BME280;64213;46.452;16.994;2022-12-13T02:56:57;99868.41;;;-5.75;100.00
75629;BME280;64213;46.452;16.994;2022-12-13T03:00:09;99854.69;;;-5.77;100.00
75629;BME280;64213;46.452;16.994;2022-12-13T03:06:49;99858.09;;;-5.78;100.00
75629;BME280;64213;46.452;16.994;2022-12-13T03:10:21;99871.00;;;-5.80;100.00
75629;BME280;64213;46.452;16.994;2022-12-13T03:13:37;99866.69;;;-5.82;100.00
75629;BME280;64213;46.452;16.994;2022-12-13T03:16:44;99865.84;;;-5.88;100.00
75629;BME280;64213;46.452;16.994;2022-12-13T03:19:51;99864.13;;;-5.87;100.00
75629;BME280;64213;46.452;16.994;2022-12-13T03:22:55;99870.16;;;-5.83;100.00
75629;BME280;64213;46.452;16.994;2022-12-13T03:26:01;99874.44;;;-5.79;100.00
75629;BME280;64213;46.452;16.994;2022-12-13T03:29:04;99868.44;;;-5.77;100.00
75629;BME280;64213;46.452;16.994;2022-12-13T03:32:06;99873.56;;;-5.69;100.00
75629;BME280;64213;46.452;16.994;2022-12-13T03:35:09;99868.41;;;-5.63;100.00
75629;BME280;64213;46.452;16.994;2022-12-13T03:38:24;99867.53;;;-5.57;100.00
75629;BME280;64213;46.452;16.994;2022-12-13T03:41:28;99864.09;;;-5.52;100.00
75629;BME280;64213;46.452;16.994;2022-12-13T03:44:33;99862.34;;;-5.47;100.00
75629;BME280;64213;46.452;16.994;2022-12-13T03:47:35;99864.94;;;-5.50;100.00
75629;BME280;64213;46.452;16.994;2022-12-13T03:50:40;99858.06;;;-5.48;100.00
75629;BME280;64213;46.452;16.994;2022-12-13T03:53:42;99849.50;;;-5.48;100.00
75629;BME280;64213;46.452;16.994;2022-12-13T03:56:45;99853.75;;;-5.49;100.00
75629;BME280;64213;46.452;16.994;2022-12-13T03:59:47;99849.47;;;-5.50;100.00
75629;BME280;64213;46.452;16.994;2022-12-13T04:02:50;99851.22;;;-5.52;100.00
75629;BME280;64213;46.452;16.994;2022-12-13T04:05:52;99846.06;;;-5.61;100.00
75629;BME280;64213;46.452;16.994;2022-12-13T04:08:54;99854.66;;;-5.70;100.00
75629;BME280;64213;46.452;16.994;2022-12-13T04:11:57;99840.94;;;-5.73;100.00
75629;BME280;64213;46.452;16.994;2022-12-13T04:15:17;99842.66;;;-5.74;100.00
75629;BME280;64213;46.452;16.994;2022-12-13T04:18:20;99841.78;;;-5.73;100.00
75629;BME280;64213;46.452;16.994;2022-12-13T04:21:22;99837.50;;;-5.72;100.00
75629;BME280;64213;46.452;16.994;2022-12-13T04:24:24;99841.78;;;-5.76;100.00
75629;BME280;64213;46.452;16.994;2022-12-13T04:27:32;99842.66;;;-5.81;100.00
75629;BME280;64213;46.452;16.994;2022-12-13T04:30:35;99839.25;;;-5.80;100.00
75629;BME280;64213;46.452;16.994;2022-12-13T04:33:38;99849.53;;;-5.80;100.00
75629;BME280;64213;46.452;16.994;2022-12-13T04:36:41;99844.38;;;-5.85;100.00
75629;BME280;64213;46.452;16.994;2022-12-13T04:39:43;99846.09;;;-5.84;100.00
75629;BME280;64213;46.452;16.994;2022-12-13T04:42:49;99838.38;;;-5.92;100.00
75629;BME280;64213;46.452;16.994;2022-12-13T04:45:55;99834.94;;;-5.92;100.00
75629;BME280;64213;46.452;16.994;2022-12-13T04:48:57;99845.25;;;-5.94;100.00
75629;BME280;64213;46.452;16.994;2022-12-13T04:52:00;99842.69;;;-5.97;100.00
75629;BME280;64213;46.452;16.994;2022-12-13T04:55:03;99845.25;;;-5.97;100.00
75629;BME280;64213;46.452;16.994;2022-12-13T04:58:05;99846.13;;;-6.07;100.00
75629;BME280;64213;46.452;16.994;2022-12-13T05:01:09;99843.56;;;-6.18;100.00
75629;BME280;64213;46.452;16.994;2022-12-13T05:04:12;99850.44;;;-6.27;100.00
75629;BME280;64213;46.452;16.994;2022-12-13T05:07:14;99852.97;;;-6.38;100.00
75629;BME280;64213;46.452;16.994;2022-12-13T05:10:16;99852.12;;;-6.40;100.00
75629;BME280;64213;46.452;16.994;2022-12-13T05:13:38;99847.84;;;-6.40;100.00
75629;BME280;64213;46.452;16.994;2022-12-13T05:16:40;99846.13;;;-6.38;100.00
75629;BME280;64213;46.452;16.994;2022-12-13T05:19:42;99847.84;;;-6.40;100.00
75629;BME280;64213;46.452;16.994;2022-12-13T05:22:45;99847.81;;;-6.35;100.00
75629;BME280;64213;46.452;16.994;2022-12-13T05:25:47;99851.28;;;-6.35;100.00
75629;BME280;64213;46.452;16.994;2022-12-13T05:28:50;99858.09;;;-6.49;100.00
75629;BME280;64213;46.452;16.994;2022-12-13T05:31:53;99846.97;;;-6.52;100.00
75629;BME280;64213;46.452;16.994;2022-12-13T05:34:55;99845.25;;;-6.49;100.00
75629;BME280;64213;46.452;16.994;2022-12-13T05:37:57;99845.25;;;-6.47;100.00
75629;BME280;64213;46.452;16.994;2022-12-13T05:41:00;99846.09;;;-6.53;100.00
75629;BME280;64213;46.452;16.994;2022-12-13T05:44:02;99846.09;;;-6.59;100.00
75629;BME280;64213;46.452;16.994;2022-12-13T05:47:04;99842.69;;;-6.50;100.00
75629;BME280;64213;46.452;16.994;2022-12-13T05:50:07;99847.81;;;-6.49;100.00
75629;BME280;64213;46.452;16.994;2022-12-13T05:53:13;99853.81;;;-6.55;100.00
75629;BME280;64213;46.452;16.994;2022-12-13T05:56:31;99845.22;;;-6.55;100.00
75629;BME280;64213;46.452;16.994;2022-12-13T05:59:33;99849.53;;;-6.51;100.00
75629;BME280;64213;46.452;16.994;2022-12-13T06:02:40;99850.41;;;-6.50;100.00
75629;BME280;64213;46.452;16.994;2022-12-13T06:05:43;99858.09;;;-6.58;100.00
75629;BME280;64213;46.452;16.994;2022-12-13T06:08:45;99858.06;;;-6.61;100.00
75629;BME280;64213;46.452;16.994;2022-12-13T06:11:48;99856.37;;;-6.59;100.00
75629;BME280;64213;46.452;16.994;2022-12-13T06:14:50;99861.50;;;-6.64;100.00
75629;BME280;64213;46.452;16.994;2022-12-13T06:17:52;99863.19;;;-6.67;100.00
75629;BME280;64213;46.452;16.994;2022-12-13T06:20:56;99857.22;;;-6.68;100.00
75629;BME280;64213;46.452;16.994;2022-12-13T06:24:01;99856.37;;;-6.65;100.00
75629;BME280;64213;46.452;16.994;2022-12-13T06:27:06;99856.37;;;-6.62;100.00
75629;BME280;64213;46.452;16.994;2022-12-13T06:30:08;99853.78;;;-6.61;100.00
75629;BME280;64213;46.452;16.994;2022-12-13T06:33:11;99847.78;;;-6.67;100.00
75629;BME280;64213;46.452;16.994;2022-12-13T06:36:14;99858.06;;;-6.69;100.00
75629;BME280;64213;46.452;16.994;2022-12-13T06:39:16;99856.34;;;-6.71;100.00
75629;BME280;64213;46.452;16.994;2022-12-13T06:42:18;99858.03;;;-6.80;100.00
75629;BME280;64213;46.452;16.994;2022-12-13T06:45:23;99852.00;;;-6.95;100.00
75629;BME280;64213;46.452;16.994;2022-12-13T06:48:26;99863.09;;;-7.04;100.00
75629;BME280;64213;46.452;16.994;2022-12-13T06:51:28;99857.09;;;-7.03;100.00
75629;BME280;64213;46.452;16.994;2022-12-13T06:54:34;99858.78;;;-7.07;100.00
75629;BME280;64213;46.452;16.994;2022-12-13T06:57:36;99855.38;;;-7.04;100.00
75629;BME280;64213;46.452;16.994;2022-12-13T07:00:42;99859.66;;;-7.06;100.00
75629;BME280;64213;46.452;16.994;2022-12-13T07:03:50;99857.97;;;-7.04;100.00
75629;BME280;64213;46.452;16.994;2022-12-13T07:06:52;99853.66;;;-6.99;100.00
75629;BME280;64213;46.452;16.994;2022-12-13T07:09:54;99859.69;;;-6.94;100.00
75629;BME280;64213;46.452;16.994;2022-12-13T07:12:56;99860.59;;;-6.87;100.00
75629;BME280;64213;46.452;16.994;2022-12-13T07:15:59;99854.59;;;-6.82;100.00
75629;BME280;64213;46.452;16.994;2022-12-13T07:19:02;99843.47;;;-6.79;100.00
75629;BME280;64213;46.452;16.994;2022-12-13T07:22:23;99849.50;;;-6.72;100.00
75629;BME280;64213;46.452;16.994;2022-12-13T07:25:25;99849.53;;;-6.63;100.00
75629;BME280;64213;46.452;16.994;2022-12-13T07:28:37;99852.94;;;-6.55;100.00
75629;BME280;64213;46.452;16.994;2022-12-13T07:31:39;99869.25;;;-6.50;100.00
75629;BME280;64213;46.452;16.994;2022-12-13T07:34:42;99860.69;;;-6.49;100.00
75629;BME280;64213;46.452;16.994;2022-12-13T07:37:44;99862.41;;;-6.43;100.00
75629;BME280;64213;46.452;16.994;2022-12-13T07:40:49;99864.13;;;-6.39;100.00
75629;BME280;64213;46.452;16.994;2022-12-13T07:43:52;99860.72;;;-6.34;100.00
75629;BME280;64213;46.452;16.994;2022-12-13T07:46:56;99856.44;;;-6.28;100.00
75629;BME280;64213;46.452;16.994;2022-12-13T07:49:58;99861.56;;;-6.16;100.00
75629;BME280;64213;46.452;16.994;2022-12-13T07:53:04;99851.28;;;-6.04;100.00
75629;BME280;64213;46.452;16.994;2022-12-13T07:56:10;99855.56;;;-5.92;100.00
75629;BME280;64213;46.452;16.994;2022-12-13T07:59:14;99850.38;;;-5.75;100.00
75629;BME280;64213;46.452;16.994;2022-12-13T08:02:28;99854.63;;;-5.53;100.00
75629;BME280;64213;46.452;16.994;2022-12-13T08:05:31;99851.13;;;-5.30;99.80
75629;BME280;64213;46.452;16.994;2022-12-13T08:08:39;99843.31;;;-5.03;99.51
75629;BME280;64213;46.452;16.994;2022-12-13T08:11:42;99851.81;;;-4.79;99.25
75629;BME280;64213;46.452;16.994;2022-12-13T08:14:44;99859.47;;;-4.64;99.19
75629;BME280;64213;46.452;16.994;2022-12-13T08:17:47;99855.94;;;-4.51;98.64
75629;BME280;64213;46.452;16.994;2022-12-13T08:20:49;99851.53;;;-4.30;98.25
75629;BME280;64213;46.452;16.994;2022-12-13T08:23:51;99856.47;;;-4.03;97.95
75629;BME280;64213;46.452;16.994;2022-12-13T08:26:58;99851.09;;;-3.75;97.19
75629;BME280;64213;46.452;16.994;2022-12-13T08:30:04;99838.75;;;-3.47;96.62
75629;BME280;64213;46.452;16.994;2022-12-13T08:33:07;99846.94;;;-3.10;96.03
75629;BME280;64213;46.452;16.994;2022-12-13T08:36:10;99842.03;;;-2.62;95.64
75629;BME280;64213;46.452;16.994;2022-12-13T08:39:13;99858.19;;;-2.44;93.52
75629;BME280;64213;46.452;16.994;2022-12-13T08:42:16;99855.59;;;-2.44;91.86
75629;BME280;64213;46.452;16.994;2022-12-13T08:45:20;99849.66;;;-2.52;91.37
75629;BME280;64213;46.452;16.994;2022-12-13T08:48:24;99849.00;;;-2.67;91.83
75629;BME280;64213;46.452;16.994;2022-12-13T08:51:27;99852.41;;;-2.62;91.66
75629;BME280;64213;46.452;16.994;2022-12-13T08:54:36;99859.84;;;-2.39;90.97
75629;BME280;64213;46.452;16.994;2022-12-13T08:57:39;99864.00;;;-2.30;90.46
75629;BME280;64213;46.452;16.994;2022-12-13T09:00:42;99857.81;;;-2.18;90.58
75629;BME280;64213;46.452;16.994;2022-12-13T09:03:46;99863.75;;;-2.12;90.31
75629;BME280;64213;46.452;16.994;2022-12-13T09:06:48;99859.53;;;-2.19;90.59
75629;BME280;64213;46.452;16.994;2022-12-13T09:09:50;99858.69;;;-2.21;90.97
75629;BME280;64213;46.452;16.994;2022-12-13T09:12:55;99870.00;;;-2.23;91.35
75629;BME280;64213;46.452;16.994;2022-12-13T09:16:05;99868.50;;;-2.41;92.23
75629;BME280;64213;46.452;16.994;2022-12-13T09:19:23;99864.28;;;-2.48;92.29
75629;BME280;64213;46.452;16.994;2022-12-13T09:22:27;99860.00;;;-2.51;92.51
75629;BME280;64213;46.452;16.994;2022-12-13T09:25:34;99861.84;;;-2.59;93.12
75629;BME280;64213;46.452;16.994;2022-12-13T09:28:38;99856.72;;;-2.64;93.46
75629;BME280;64213;46.452;16.994;2022-12-13T09:31:41;99852.44;;;-2.66;93.86
75629;BME280;64213;46.452;16.994;2022-12-13T09:34:51;99849.72;;;-2.57;93.90
75629;BME280;64213;46.452;16.994;2022-12-13T09:37:54;99848.81;;;-2.53;93.94
75629;BME280;64213;46.452;16.994;2022-12-13T09:40:59;99840.06;;;-2.44;94.02
75629;BME280;64213;46.452;16.994;2022-12-13T09:47:36;99845.78;;;-2.24;93.98
75629;BME280;64213;46.452;16.994;2022-12-13T09:50:49;99843.94;;;-2.16;93.79
75629;BME280;64213;46.452;16.994;2022-12-13T09:54:18;99835.13;;;-2.04;93.63
75629;BME280;64213;46.452;16.994;2022-12-13T09:57:30;99833.25;;;-1.94;93.00
75629;BME280;64213;46.452;16.994;2022-12-13T10:00:35;99825.31;;;-1.85;92.53
75629;BME280;64213;46.452;16.994;2022-12-13T10:03:40;99824.28;;;-1.75;92.05
75629;BME280;64213;46.452;16.994;2022-12-13T10:06:44;99823.13;;;-1.58;91.44
75629;BME280;64213;46.452;16.994;2022-12-13T10:09:47;99808.75;;;-1.30;89.94
75629;BME280;64213;46.452;16.994;2022-12-13T10:19:39;99787.63;;;1.27;71.14
75629;BME280;64213;46.452;16.994;2022-12-13T10:22:42;99781.84;;;2.00;68.81
75629;BME280;64213;46.452;16.994;2022-12-13T10:26:09;99770.28;;;2.08;64.78
75629;BME280;64213;46.452;16.994;2022-12-13T10:29:28;99769.66;;;2.27;66.38
75629;BME280;64213;46.452;16.994;2022-12-13T10:32:32;99761.53;;;2.60;64.42
75629;BME280;64213;46.452;16.994;2022-12-13T10:35:39;99763.88;;;2.91;64.53
75629;BME280;64213;46.452;16.994;2022-12-13T10:38:44;99772.16;;;2.78;61.47
75629;BME280;64213;46.452;16.994;2022-12-13T10:41:46;99767.28;;;2.44;64.64
75629;BME280;64213;46.452;16.994;2022-12-13T10:45:07;99756.56;;;2.52;64.42
75629;BME280;64213;46.452;16.994;2022-12-13T10:48:22;99762.16;;;2.16;64.71
75629;BME280;64213;46.452;16.994;2022-12-13T10:51:26;99757.56;;;2.24;66.17
75629;BME280;64213;46.452;16.994;2022-12-13T10:54:32;99756.63;;;2.00;65.21
75629;BME280;64213;46.452;16.994;2022-12-13T10:57:51;99747.91;;;2.01;66.39
75629;BME280;64213;46.452;16.994;2022-12-13T11:01:07;99746.25;;;1.99;64.57
75629;BME280;64213;46.452;16.994;2022-12-13T11:04:36;99748.81;;;1.74;63.98
75629;BME280;64213;46.452;16.994;2022-12-13T11:07:38;99739.66;;;1.89;65.38
75629;BME280;64213;46.452;16.994;2022-12-13T11:10:41;99732.66;;;1.89;64.65
75629;BME280;64213;46.452;16.994;2022-12-13T11:13:46;99732.75;;;1.59;62.81
75629;BME280;64213;46.452;16.994;2022-12-13T11:16:55;99728.69;;;1.77;63.16
75629;BME280;64213;46.452;16.994;2022-12-13T11:20:03;99721.72;;;1.78;63.31
75629;BME280;64213;46.452;16.994;2022-12-13T11:23:28;99725.25;;;1.77;61.79
75629;BME280;64213;46.452;16.994;2022-12-13T11:26:35;99736.13;;;1.63;61.02
75629;BME280;64213;46.452;16.994;2022-12-13T11:39:39;99719.00;;;1.82;62.00
75629;BME280;64213;46.452;16.994;2022-12-13T11:46:16;99710.78;;;1.93;61.22
75629;BME280;64213;46.452;16.994;2022-12-13T11:52:40;99701.19;;;1.94;60.00
75629;BME280;64213;46.452;16.994;2022-12-13T11:59:41;99709.00;;;1.69;59.40
75629;BME280;64213;46.452;16.994;2022-12-13T12:02:51;99708.12;;;1.70;60.60
75629;BME280;64213;46.452;16.994;2022-12-13T12:06:00;99699.22;;;1.75;59.75
75629;BME280;64213;46.452;16.994;2022-12-13T12:09:08;99700.78;;;1.81;60.95
75629;BME280;64213;46.452;16.994;2022-12-13T12:12:23;99696.87;;;1.68;59.79
75629;BME280;64213;46.452;16.994;2022-12-13T12:15:35;99706.28;;;1.72;58.83
75629;BME280;64213;46.452;16.994;2022-12-13T12:18:42;99693.00;;;1.79;60.03
75629;BME280;64213;46.452;16.994;2022-12-13T12:28:50;99694.19;;;1.44;59.42
75629;BME280;64213;46.452;16.994;2022-12-13T12:42:44;99692.00;;;1.83;59.80
75629;BME280;64213;46.452;16.994;2022-12-13T12:53:20;99697.13;;;2.12;58.45
75629;BME280;64213;46.452;16.994;2022-12-13T12:57:19;99702.22;;;1.90;58.39
75629;BME280;64213;46.452;16.994;2022-12-13T13:00:17;99707.78;;;1.52;59.49
75629;BME280;64213;46.452;16.994;2022-12-13T13:03:23;99708.69;;;1.25;60.25
75629;BME280;64213;46.452;16.994;2022-12-13T13:06:50;99709.06;;;1.12;60.75
75629;BME280;64213;46.452;16.994;2022-12-13T13:09:51;99708.34;;;1.07;61.07
75629;BME280;64213;46.452;16.994;2022-12-13T13:12:56;99700.25;;;1.16;61.74
75629;BME280;64213;46.452;16.994;2022-12-13T13:22:34;99711.00;;;1.06;61.77
75629;BME280;64213;46.452;16.994;2022-12-13T13:25:53;99711.81;;;1.08;63.51
75629;BME280;64213;46.452;16.994;2022-12-13T13:32:29;99709.63;;;0.94;66.23
75629;BME280;64213;46.452;16.994;2022-12-13T13:38:48;99702.50;;;0.71;68.87
75629;BME280;64213;46.452;16.994;2022-12-13T13:45:21;99700.25;;;0.59;69.63
75629;BME280;64213;46.452;16.994;2022-12-13T13:51:56;99699.78;;;0.44;70.95
75629;BME280;64213;46.452;16.994;2022-12-13T14:05:40;99696.97;;;0.21;72.63
75629;BME280;64213;46.452;16.994;2022-12-13T14:18:46;99712.72;;;0.16;73.35
75629;BME280;64213;46.452;16.994;2022-12-13T14:22:39;99711.97;;;0.11;73.78
75629;BME280;64213;46.452;16.994;2022-12-13T14:26:02;99713.75;;;0.09;74.05
75629;BME280;64213;46.452;16.994;2022-12-13T14:29:15;99714.72;;;0.07;74.45
75629;BME280;64213;46.452;16.994;2022-12-13T14:32:24;99721.72;;;0.03;74.85
75629;BME280;64213;46.452;16.994;2022-12-13T14:35:32;99720.91;;;0.01;75.25
75629;BME280;64213;46.452;16.994;2022-12-13T14:38:34;99714.97;;;-0.04;74.60
75629;BME280;64213;46.452;16.994;2022-12-13T14:41:47;99712.44;;;-0.07;74.42
75629;BME280;64213;46.452;16.994;2022-12-13T14:45:23;99714.28;;;-0.11;73.97
75629;BME280;64213;46.452;16.994;2022-12-13T14:48:28;99703.16;;;-0.16;75.00
75629;BME280;64213;46.452;16.994;2022-12-13T14:51:33;99714.50;;;-0.18;75.35
75629;BME280;64213;46.452;16.994;2022-12-13T14:54:49;99705.94;;;-0.24;75.27
75629;BME280;64213;46.452;16.994;2022-12-13T14:57:59;99697.31;;;-0.26;75.89
75629;BME280;64213;46.452;16.994;2022-12-13T15:01:05;99687.03;;;-0.29;75.89
75629;BME280;64213;46.452;16.994;2022-12-13T15:07:29;99683.59;;;-0.31;75.68
75629;BME280;64213;46.452;16.994;2022-12-13T15:10:39;99686.31;;;-0.35;76.06
75629;BME280;64213;46.452;16.994;2022-12-13T15:13:47;99683.78;;;-0.38;76.23
75629;BME280;64213;46.452;16.994;2022-12-13T15:16:54;99685.53;;;-0.39;76.00
75629;BME280;64213;46.452;16.994;2022-12-13T15:19:58;99695.09;;;-0.39;76.05
75629;BME280;64213;46.452;16.994;2022-12-13T15:23:05;99696.84;;;-0.40;76.19
75629;BME280;64213;46.452;16.994;2022-12-13T15:29:31;99702.94;;;-0.42;76.25
75629;BME280;64213;46.452;16.994;2022-12-13T15:32:34;99691.91;;;-0.51;76.38
75629;BME280;64213;46.452;16.994;2022-12-13T15:35:37;99702.22;;;-0.48;77.16
75629;BME280;64213;46.452;16.994;2022-12-13T15:41:50;99708.44;;;-0.55;78.54
75629;BME280;64213;46.452;16.994;2022-12-13T15:44:58;99711.09;;;-0.58;78.96
75629;BME280;64213;46.452;16.994;2022-12-13T15:48:01;99703.50;;;-0.65;78.83
75629;BME280;64213;46.452;16.994;2022-12-13T15:51:08;99703.59;;;-0.68;78.58
75629;BME280;64213;46.452;16.994;2022-12-13T15:57:15;99710.53;;;-0.71;78.53
75629;BME280;64213;46.452;16.994;2022-12-13T16:00:25;99703.59;;;-0.68;78.80
75629;BME280;64213;46.452;16.994;2022-12-13T16:03:41;99705.44;;;-0.74;78.73
75629;BME280;64213;46.452;16.994;2022-12-13T16:06:47;99707.22;;;-0.76;78.88
75629;BME280;64213;46.452;16.994;2022-12-13T16:09:52;99709.81;;;-0.76;79.01
75629;BME280;64213;46.452;16.994;2022-12-13T16:16:18;99707.16;;;-0.73;78.02
75629;BME280;64213;46.452;16.994;2022-12-13T16:19:28;99708.91;;;-0.75;78.50
75629;BME280;64213;46.452;16.994;2022-12-13T16:22:31;99714.19;;;-0.78;78.57
75629;BME280;64213;46.452;16.994;2022-12-13T16:25:33;99708.09;;;-0.77;78.53
75629;BME280;64213;46.452;16.994;2022-12-13T16:28:35;99708.16;;;-0.78;79.08
75629;BME280;64213;46.452;16.994;2022-12-13T16:31:38;99712.56;;;-0.82;79.52
75629;BME280;64213;46.452;16.994;2022-12-13T16:34:40;99700.47;;;-0.83;79.38
75629;BME280;64213;46.452;16.994;2022-12-13T16:37:42;99704.84;;;-0.86;79.36
75629;BME280;64213;46.452;16.994;2022-12-13T16:40:51;99706.66;;;-0.88;79.76
75629;BME280;64213;46.452;16.994;2022-12-13T16:43:57;99713.53;;;-0.87;79.40
75629;BME280;64213;46.452;16.994;2022-12-13T16:47:01;99710.09;;;-0.88;79.36
75629;BME280;64213;46.452;16.994;2022-12-13T16:50:19;99716.19;;;-0.89;79.73
75629;BME280;64213;46.452;16.994;2022-12-13T16:53:22;99719.66;;;-0.90;79.78
75629;BME280;64213;46.452;16.994;2022-12-13T16:56:26;99705.88;;;-0.92;79.70
75629;BME280;64213;46.452;16.994;2022-12-13T16:59:29;99715.34;;;-0.91;79.85
75629;BME280;64213;46.452;16.994;2022-12-13T17:02:32;99718.81;;;-0.90;80.01
75629;BME280;64213;46.452;16.994;2022-12-13T17:05:41;99717.09;;;-0.91;80.64
75629;BME280;64213;46.452;16.994;2022-12-13T17:08:44;99714.53;;;-0.93;80.86
75629;BME280;64213;46.452;16.994;2022-12-13T17:11:49;99717.13;;;-0.93;81.23
75629;BME280;64213;46.452;16.994;2022-12-13T17:14:52;99721.44;;;-0.92;81.27
75629;BME280;64213;46.452;16.994;2022-12-13T17:17:55;99713.59;;;-0.90;80.97
75629;BME280;64213;46.452;16.994;2022-12-13T17:21:05;99704.91;;;-0.89;80.94
75629;BME280;64213;46.452;16.994;2022-12-13T17:24:09;99704.00;;;-0.87;81.17
75629;BME280;64213;46.452;16.994;2022-12-13T17:27:12;99694.53;;;-0.88;81.27
75629;BME280;64213;46.452;16.994;2022-12-13T17:30:17;99697.13;;;-0.89;81.28
75629;BME280;64213;46.452;16.994;2022-12-13T17:33:23;99692.00;;;-0.91;81.27
75629;BME280;64213;46.452;16.994;2022-12-13T17:36:35;99699.84;;;-0.92;81.48
75629;BME280;64213;46.452;16.994;2022-12-13T17:39:38;99698.94;;;-0.93;81.88
75629;BME280;64213;46.452;16.994;2022-12-13T17:42:57;99698.16;;;-0.97;82.50
75629;BME280;64213;46.452;16.994;2022-12-13T17:46:02;99695.63;;;-0.98;82.68
75629;BME280;64213;46.452;16.994;2022-12-13T17:49:05;99693.91;;;-0.99;82.95
75629;BME280;64213;46.452;16.994;2022-12-13T17:52:11;99696.50;;;-0.99;83.04
75629;BME280;64213;46.452;16.994;2022-12-13T17:55:14;99694.84;;;-1.02;83.23
75629;BME280;64213;46.452;16.994;2022-12-13T17:58:20;99700.03;;;-1.02;83.17
75629;BME280;64213;46.452;16.994;2022-12-13T18:01:25;99705.16;;;-0.99;83.45
75629;BME280;64213;46.452;16.994;2022-12-13T18:04:48;99693.91;;;-0.99;83.49
75629;BME280;64213;46.452;16.994;2022-12-13T18:07:51;99693.91;;;-0.99;83.41
75629;BME280;64213;46.452;16.994;2022-12-13T18:10:57;99691.28;;;-0.98;83.80
75629;BME280;64213;46.452;16.994;2022-12-13T18:14:20;99688.75;;;-1.01;83.94
75629;BME280;64213;46.452;16.994;2022-12-13T18:17:23;99696.59;;;-1.04;84.34
75629;BME280;64213;46.452;16.994;2022-12-13T18:21:04;99695.75;;;-1.04;84.12
75629;BME280;64213;46.452;16.994;2022-12-13T18:24:08;99698.34;;;-1.04;84.19
75629;BME280;64213;46.452;16.994;2022-12-13T18:27:11;99699.25;;;-1.05;84.26